MMCS/CJS METAR and TAF weather

Enter ICAO airport designator
Station Type Date Time Source
MMCS METAR 2022/12/05 14:48 UTC NOAA

MMCS 051448Z 00000KT 10SM BKN040 BKN100 12/08 A3009 RMK SLP124 5//// 992 8/530


Station Type Date Time Source
MMCS Decoded METAR 2022/12/05 14:48 UTC NOAA

Ciudad Juarez International , Mexico (MMCS) 31-38N 106-26W
Dec 05, 2022 - 09:48 AM EST / 2022.12.05 1448 UTC
Wind: Calm:0
Visibility: 10 mile(s):0
Sky conditions: mostly cloudy
Temperature: 53 F (12 C)
Dew Point: 46 F (8 C)
Relative Humidity: 76%
Pressure (altimeter): 30.09 in. Hg (1018 hPa)
ob: MMCS 051448Z 00000KT 10SM BKN040 BKN100 12/08 A3009 RMK SLP124 5//// 992 8/530
cycle: 15

Station Type Date Time Source
MMCS TAF 2022/12/05 14:54 UTC NOAA

TAF
AMD TAF
AMD MMCS 051351Z 0514/0606 20010KT P6SM BKN040 OVC100
TEMPO 0515/0518 6SM RA
FM052000 24015KT P6SM SCT030 BKN200

Example: see airport list